Time;durP1;ratioP1;P1;durP2;ratioP2;P2;SDS_P1;SDS_P2;PMS_P1;PMS_P2;Temp;Humidity;BMP_temperature;BMP_pressure;BME280_temperature;BME280_humidity;BME280_pressure;Samples;Min_cycle;Max_cycle;Signal;HPM_P1;HPM_P2
2024/01/19 00:00:33;;;;;;;41.38;24.85;;;4.20;99.90;;;;;;5093771;28;20036;-73
2024/01/19 00:02:59;;;;;;;26.80;16.60;;;4.20;99.90;;;;;;5093380;28;20020;-73
2024/01/19 00:05:24;;;;;;;32.47;23.90;;;4.10;99.90;;;;;;5093841;28;20063;-73
2024/01/19 00:07:50;;;;;;;55.30;38.63;;;4.00;99.90;;;;;;5093411;28;20474;-73
2024/01/19 00:10:16;;;;;;;45.58;31.65;;;4.00;99.90;;;;;;5093072;28;20035;-73
2024/01/19 00:12:41;;;;;;;37.25;26.52;;;3.90;99.90;;;;;;5092880;28;20031;-73
2024/01/19 00:15:08;;;;;;;27.95;21.42;;;3.80;99.90;;;;;;5092848;28;20501;-72
2024/01/19 00:17:33;;;;;;;24.15;16.70;;;3.80;99.90;;;;;;5093307;28;20024;-72
2024/01/19 00:19:59;;;;;;;33.50;23.05;;;3.80;99.90;;;;;;5093048;28;20035;-72
2024/01/19 00:22:24;;;;;;;40.47;30.92;;;3.70;99.90;;;;;;5093377;28;20327;-72
2024/01/19 00:24:50;;;;;;;26.05;18.48;;;3.70;99.90;;;;;;5093121;28;20473;-73
2024/01/19 00:27:16;;;;;;;17.95;11.82;;;3.70;99.90;;;;;;5092517;28;20028;-72
2024/01/19 00:29:41;;;;;;;14.90;9.50;;;3.70;99.90;;;;;;5093162;28;20547;-73
2024/01/19 00:32:07;;;;;;;10.60;6.70;;;3.80;99.90;;;;;;5092967;28;20024;-72
2024/01/19 00:34:33;;;;;;;10.80;6.63;;;3.80;99.90;;;;;;5092925;28;20024;-72
2024/01/19 00:36:58;;;;;;;12.32;8.13;;;3.70;99.90;;;;;;5092944;28;20020;-72
2024/01/19 00:39:24;;;;;;;10.88;7.00;;;3.70;99.90;;;;;;5092787;28;20539;-72
2024/01/19 00:41:50;;;;;;;8.38;5.85;;;3.70;99.90;;;;;;5092352;28;20085;-72
2024/01/19 00:44:15;;;;;;;9.65;5.88;;;3.90;99.90;;;;;;5091483;28;20114;-72
2024/01/19 00:46:41;;;;;;;9.75;6.00;;;3.90;99.90;;;;;;5093144;28;20024;-71
2024/01/19 00:49:06;;;;;;;10.00;5.93;;;3.70;99.90;;;;;;5092653;28;20047;-72
2024/01/19 00:51:32;;;;;;;9.50;5.40;;;3.80;99.90;;;;;;5101455;28;20382;-71
2024/01/19 00:53:58;;;;;;;10.20;6.13;;;3.80;99.90;;;;;;5095208;28;20481;-72
2024/01/19 00:56:23;;;;;;;10.15;6.07;;;3.80;99.90;;;;;;5090763;28;20208;-72
2024/01/19 00:58:49;;;;;;;12.25;6.65;;;3.90;99.90;;;;;;5092543;28;20020;-72
2024/01/19 01:01:15;;;;;;;11.18;6.88;;;3.80;99.90;;;;;;5092592;28;20032;-71
2024/01/19 01:03:40;;;;;;;9.70;6.20;;;3.70;99.90;;;;;;5092364;28;20020;-70
2024/01/19 01:06:06;;;;;;;9.32;6.03;;;3.70;99.90;;;;;;5092321;28;20025;-72
2024/01/19 01:08:35;;;;;;;11.07;6.55;;;3.70;99.90;;;;;;5092597;28;20039;-72
2024/01/19 01:11:01;;;;;;;10.02;6.60;;;4.00;99.90;;;;;;5091965;28;20051;-73
2024/01/19 01:13:26;;;;;;;20.58;15.35;;;4.10;99.90;;;;;;5092331;28;20505;-72
2024/01/19 01:15:52;;;;;;;19.98;17.02;;;4.30;99.90;;;;;;5092207;28;20030;-73
2024/01/19 01:18:20;;;;;;;19.55;13.68;;;4.50;99.90;;;;;;5092145;28;20099;-73
2024/01/19 01:20:45;;;;;;;70.57;63.28;;;4.60;99.90;;;;;;5092021;28;20024;-72
2024/01/19 01:23:11;;;;;;;44.08;39.28;;;4.70;99.90;;;;;;5092059;28;20060;-72
2024/01/19 01:25:37;;;;;;;72.05;63.35;;;4.40;99.90;;;;;;5091703;28;20066;-72
2024/01/19 01:28:02;;;;;;;40.88;33.53;;;4.30;99.90;;;;;;5092075;28;20028;-72
2024/01/19 01:30:28;;;;;;;61.97;55.38;;;4.20;99.90;;;;;;5091984;28;20036;-72
2024/01/19 01:32:54;;;;;;;64.55;56.75;;;4.10;99.90;;;;;;5092370;28;20028;-72
2024/01/19 01:35:20;;;;;;;36.28;28.13;;;4.00;99.90;;;;;;5092260;28;20039;-72
2024/01/19 01:37:45;;;;;;;18.55;14.98;;;3.90;99.90;;;;;;5091796;28;20398;-72
2024/01/19 01:40:11;;;;;;;15.00;10.38;;;3.80;99.90;;;;;;5091496;28;20044;-72
2024/01/19 01:42:38;;;;;;;15.38;11.00;;;3.80;99.90;;;;;;5091907;28;20051;-73
2024/01/19 01:45:04;;;;;;;17.02;9.75;;;3.60;99.90;;;;;;5092340;28;20425;-72
2024/01/19 01:47:30;;;;;;;16.63;11.85;;;3.50;99.90;;;;;;5091853;28;20020;-73
2024/01/19 01:49:55;;;;;;;24.80;18.65;;;3.40;99.90;;;;;;5091747;28;20036;-72
2024/01/19 01:52:21;;;;;;;22.85;14.70;;;3.30;99.90;;;;;;5091715;28;20359;-72
2024/01/19 01:54:47;;;;;;;21.27;13.60;;;3.20;99.90;;;;;;5091534;28;20016;-72
2024/01/19 01:57:14;;;;;;;22.90;14.90;;;3.30;99.90;;;;;;5092071;28;20034;-72
2024/01/19 01:59:40;;;;;;;20.95;14.98;;;3.20;99.90;;;;;;5091590;28;20057;-72
2024/01/19 02:02:06;;;;;;;28.35;17.35;;;3.20;99.90;;;;;;5091975;28;20364;-72
2024/01/19 02:04:34;;;;;;;27.42;17.42;;;3.20;99.90;;;;;;5091800;28;20490;-72
2024/01/19 02:07:00;;;;;;;17.55;11.18;;;3.10;99.90;;;;;;5091634;28;20393;-72
2024/01/19 02:09:25;;;;;;;16.55;11.50;;;3.20;99.90;;;;;;5091599;28;20081;-72
2024/01/19 02:11:52;;;;;;;14.27;10.50;;;3.10;99.90;;;;;;5091493;28;20482;-72
2024/01/19 02:14:18;;;;;;;19.00;11.85;;;3.10;99.90;;;;;;5091759;28;20032;-72
2024/01/19 02:16:43;;;;;;;12.32;9.40;;;3.10;99.90;;;;;;5091952;28;20085;-72
2024/01/19 02:19:09;;;;;;;38.28;29.92;;;3.10;99.90;;;;;;5091403;28;20032;-72
2024/01/19 02:21:35;;;;;;;49.15;37.85;;;3.10;99.90;;;;;;5091512;28;20043;-73
2024/01/19 02:24:02;;;;;;;25.13;15.95;;;3.00;99.90;;;;;;5091342;28;20028;-72
2024/01/19 02:26:33;;;;;;;19.90;11.63;;;3.00;99.90;;;;;;5091510;28;20066;-72
2024/01/19 02:28:59;;;;;;;14.52;9.93;;;2.90;99.90;;;;;;5091689;28;20040;-72
2024/01/19 02:31:25;;;;;;;16.70;10.55;;;2.90;99.90;;;;;;5091413;28;20461;-72
2024/01/19 02:33:51;;;;;;;20.67;14.50;;;2.90;99.90;;;;;;5091428;28;20048;-72
2024/01/19 02:36:17;;;;;;;20.63;13.18;;;2.90;99.90;;;;;;5091298;28;20016;-72
2024/01/19 02:38:43;;;;;;;22.80;14.57;;;2.80;99.90;;;;;;5094463;28;20482;-73
2024/01/19 02:41:09;;;;;;;21.50;13.45;;;2.90;99.90;;;;;;5095090;28;20085;-73
2024/01/19 02:43:34;;;;;;;27.48;17.90;;;2.80;99.90;;;;;;5094960;28;20393;-72
2024/01/19 02:46:00;;;;;;;23.00;12.48;;;2.80;99.90;;;;;;5095100;28;20024;-72
2024/01/19 02:48:26;;;;;;;19.20;12.90;;;2.80;99.90;;;;;;5095552;28;20024;-72
2024/01/19 02:50:51;;;;;;;17.67;14.05;;;2.80;99.90;;;;;;5093495;28;20563;-72
2024/01/19 02:53:17;;;;;;;26.52;23.73;;;2.80;99.90;;;;;;5094638;28;20050;-72
2024/01/19 02:55:42;;;;;;;24.95;17.05;;;2.80;99.90;;;;;;5094813;28;20486;-72
2024/01/19 02:58:08;;;;;;;24.92;16.52;;;2.70;99.90;;;;;;5094794;28;20020;-72
2024/01/19 03:00:34;;;;;;;21.60;14.10;;;2.70;99.90;;;;;;5094760;28;20109;-72
2024/01/19 03:02:59;;;;;;;16.73;11.20;;;2.70;99.90;;;;;;5094667;28;20027;-72
2024/01/19 03:05:25;;;;;;;20.63;14.00;;;2.70;99.90;;;;;;5094691;28;20098;-72
2024/01/19 03:07:51;;;;;;;19.80;15.40;;;2.70;99.90;;;;;;5094103;28;20028;-72
2024/01/19 03:10:16;;;;;;;20.50;14.20;;;2.70;99.90;;;;;;5095063;28;20032;-72
2024/01/19 03:12:42;;;;;;;19.60;12.75;;;2.70;99.90;;;;;;5094597;28;20150;-72
2024/01/19 03:15:08;;;;;;;18.50;12.23;;;2.60;99.90;;;;;;5094504;28;20032;-72
2024/01/19 03:17:33;;;;;;;16.05;10.27;;;2.70;99.90;;;;;;5094451;28;20049;-72
2024/01/19 03:20:03;;;;;;;17.23;11.05;;;2.70;99.90;;;;;;5094200;28;20570;-72
2024/01/19 03:22:31;;;;;;;19.15;11.23;;;3.10;99.90;;;;;;5093878;28;20077;-73
2024/01/19 03:24:56;;;;;;;17.77;13.70;;;3.20;99.90;;;;;;5094443;28;20028;-72
2024/01/19 03:27:22;;;;;;;16.50;11.18;;;3.40;99.90;;;;;;5094250;28;20024;-73
2024/01/19 03:29:48;;;;;;;18.38;13.93;;;3.40;99.90;;;;;;5094170;28;20467;-72
2024/01/19 03:32:14;;;;;;;15.75;10.30;;;3.60;99.90;;;;;;5094156;28;20028;-72
2024/01/19 03:34:40;;;;;;;22.63;14.63;;;3.50;99.90;;;;;;5093968;28;20447;-71
2024/01/19 03:37:05;;;;;;;15.70;12.13;;;3.40;99.90;;;;;;5092822;28;20055;-72
2024/01/19 03:39:32;;;;;;;12.55;9.68;;;3.30;99.90;;;;;;5093913;28;20087;-71
2024/01/19 03:41:58;;;;;;;16.05;9.80;;;3.00;99.90;;;;;;5093836;28;20435;-71
2024/01/19 03:44:24;;;;;;;16.00;10.57;;;2.90;99.90;;;;;;5093893;28;20076;-72
2024/01/19 03:46:50;;;;;;;17.67;11.63;;;2.90;99.90;;;;;;5094532;28;20032;-71
2024/01/19 03:49:16;;;;;;;14.48;9.40;;;2.80;99.90;;;;;;5093844;28;20020;-71
2024/01/19 03:52:01;;;;;;;15.48;9.38;;;2.80;99.90;;;;;;5092940;28;20082;-71
2024/01/19 03:54:27;;;;;;;15.18;8.55;;;2.60;99.90;;;;;;5112511;28;20428;-71
2024/01/19 03:56:57;;;;;;;15.25;10.57;;;2.60;99.90;;;;;;5114268;28;20032;-71
2024/01/19 03:59:22;;;;;;;17.17;13.15;;;2.60;99.90;;;;;;5114059;28;20015;-71
2024/01/19 04:01:48;;;;;;;18.17;9.50;;;2.50;99.90;;;;;;5113842;28;20051;-71
2024/01/19 04:04:13;;;;;;;17.42;8.68;;;2.50;99.90;;;;;;5112349;28;20035;-68
2024/01/19 04:06:39;;;;;;;11.90;7.40;;;2.40;99.90;;;;;;5104644;28;20028;-71
2024/01/19 04:09:06;;;;;;;10.77;8.75;;;2.50;99.90;;;;;;5093193;28;20035;-71
2024/01/19 04:11:33;;;;;;;15.57;9.75;;;2.30;99.90;;;;;;5079060;28;20043;-71
2024/01/19 04:13:59;;;;;;;19.73;13.77;;;2.30;99.90;;;;;;5072959;28;20020;-71
2024/01/19 04:16:25;;;;;;;33.47;21.95;;;2.30;99.90;;;;;;5087129;28;20544;-71
2024/01/19 04:18:50;;;;;;;19.25;13.20;;;2.30;99.90;;;;;;5092974;28;20474;-71
2024/01/19 04:21:16;;;;;;;23.42;13.57;;;2.20;99.90;;;;;;5092997;28;20079;-71
2024/01/19 04:23:44;;;;;;;29.73;18.85;;;2.20;99.90;;;;;;5093616;28;20020;-71
2024/01/19 04:26:10;;;;;;;34.90;21.88;;;2.20;99.90;;;;;;5093267;28;20028;-71
2024/01/19 04:28:36;;;;;;;40.20;26.63;;;2.30;99.90;;;;;;5093176;28;20020;-71
2024/01/19 04:31:02;;;;;;;42.50;26.25;;;2.30;99.90;;;;;;5092796;28;20457;-71
2024/01/19 04:33:28;;;;;;;39.33;24.63;;;2.30;99.90;;;;;;5092891;28;20027;-71
2024/01/19 04:35:53;;;;;;;36.70;25.92;;;2.20;99.90;;;;;;5093321;28;20039;-71
2024/01/19 04:38:19;;;;;;;24.67;15.38;;;2.20;99.90;;;;;;5092915;28;20016;-71
2024/01/19 04:40:44;;;;;;;27.25;17.83;;;2.20;99.90;;;;;;5092619;28;20402;-71
2024/01/19 04:43:10;;;;;;;29.85;16.90;;;2.20;99.90;;;;;;5092693;28;20027;-72
2024/01/19 04:45:36;;;;;;;31.70;17.25;;;2.20;99.90;;;;;;5093181;28;20028;-71
2024/01/19 04:48:02;;;;;;;23.52;13.10;;;2.20;99.90;;;;;;5091076;28;20505;-72
2024/01/19 04:50:28;;;;;;;34.13;21.98;;;2.20;99.90;;;;;;5092188;28;20055;-72
2024/01/19 04:52:53;;;;;;;33.78;19.60;;;2.20;99.90;;;;;;5092532;28;20033;-72
2024/01/19 04:55:19;;;;;;;20.67;13.38;;;2.10;99.90;;;;;;5092664;28;20082;-72
2024/01/19 04:57:45;;;;;;;30.73;18.65;;;2.10;99.90;;;;;;5092440;28;20028;-72
2024/01/19 05:00:12;;;;;;;26.98;18.77;;;2.10;99.90;;;;;;5092417;28;20059;-72
2024/01/19 05:02:37;;;;;;;29.73;20.40;;;2.20;99.90;;;;;;5092149;28;20036;-72
2024/01/19 05:05:03;;;;;;;22.92;15.27;;;2.10;99.90;;;;;;5092496;28;20031;-72
2024/01/19 05:07:29;;;;;;;27.92;15.70;;;2.10;99.90;;;;;;5092395;28;20367;-72
2024/01/19 05:09:56;;;;;;;30.60;19.30;;;2.10;99.90;;;;;;5092244;28;20024;-72
2024/01/19 05:12:22;;;;;;;33.10;21.05;;;2.10;99.90;;;;;;5092251;28;20055;-72
2024/01/19 05:14:48;;;;;;;24.80;16.67;;;2.10;99.90;;;;;;5092194;28;20058;-72
2024/01/19 05:17:13;;;;;;;23.70;16.05;;;2.10;99.90;;;;;;5091860;28;20143;-72
2024/01/19 05:19:39;;;;;;;37.38;24.05;;;2.10;99.90;;;;;;5092275;28;20103;-72
2024/01/19 05:22:05;;;;;;;29.95;20.02;;;2.00;99.90;;;;;;5092661;28;20078;-73
2024/01/19 05:24:30;;;;;;;31.33;20.95;;;2.00;99.90;;;;;;5092077;28;20034;-72
2024/01/19 05:26:56;;;;;;;24.45;17.10;;;2.00;99.90;;;;;;5092511;28;20020;-71
2024/01/19 05:29:22;;;;;;;33.70;22.77;;;2.00;99.90;;;;;;5092427;28;20115;-72
2024/01/19 05:31:48;;;;;;;51.85;33.35;;;2.00;99.90;;;;;;5091713;28;20123;-72
2024/01/19 05:34:14;;;;;;;37.33;22.58;;;2.00;99.90;;;;;;5092422;28;20102;-72
2024/01/19 05:36:40;;;;;;;38.92;24.52;;;2.00;99.90;;;;;;5092181;28;20107;-73
2024/01/19 05:39:07;;;;;;;24.00;16.30;;;2.00;99.90;;;;;;5092083;28;20095;-73
2024/01/19 05:41:33;;;;;;;23.70;14.30;;;2.00;99.90;;;;;;5092460;28;20142;-73
2024/01/19 05:43:59;;;;;;;20.50;12.98;;;2.00;99.90;;;;;;5091772;28;20051;-73
2024/01/19 05:46:25;;;;;;;17.15;9.75;;;2.30;99.90;;;;;;5091705;28;20047;-73
2024/01/19 05:48:50;;;;;;;18.98;10.38;;;2.50;99.90;;;;;;5092473;28;20051;-74
2024/01/19 05:51:16;;;;;;;19.25;9.63;;;2.70;99.90;;;;;;5091741;28;20179;-74
2024/01/19 05:53:42;;;;;;;22.30;11.20;;;2.80;99.90;;;;;;5091701;28;20426;-74
2024/01/19 05:56:08;;;;;;;22.05;11.85;;;2.80;99.90;;;;;;5091772;28;20051;-73
2024/01/19 05:58:34;;;;;;;17.55;10.93;;;2.80;99.90;;;;;;5091769;28;20051;-73
2024/01/19 06:01:02;;;;;;;38.75;17.92;;;2.80;99.90;;;;;;5091346;28;20555;-73
2024/01/19 06:03:33;;;;;;;36.55;19.90;;;2.60;99.90;;;;;;5092155;28;20024;-73
2024/01/19 06:06:00;;;;;;;39.67;20.02;;;2.40;99.90;;;;;;5091763;28;20546;-72
2024/01/19 06:08:26;;;;;;;35.67;20.00;;;2.10;99.90;;;;;;5091772;28;20103;-73
2024/01/19 06:10:51;;;;;;;23.25;13.13;;;2.10;99.90;;;;;;5091914;28;20123;-73
2024/01/19 06:13:17;;;;;;;19.35;10.70;;;2.00;99.90;;;;;;5094423;28;20510;-73
2024/01/19 06:15:43;;;;;;;16.17;9.90;;;2.00;99.90;;;;;;5095147;28;20028;-73
2024/01/19 06:18:08;;;;;;;15.88;9.27;;;1.90;99.90;;;;;;5095599;28;20073;-72
2024/01/19 06:20:39;;;;;;;16.75;10.32;;;1.90;99.90;;;;;;5095486;28;20516;-72
2024/01/19 06:23:04;;;;;;;18.77;11.18;;;1.90;99.90;;;;;;5094175;28;20386;-72
2024/01/19 06:25:30;;;;;;;19.45;12.20;;;1.80;99.90;;;;;;5095825;28;20085;-72
2024/01/19 06:27:57;;;;;;;22.50;11.13;;;1.80;99.90;;;;;;5095221;28;20485;-72
2024/01/19 06:30:22;;;;;;;23.20;14.70;;;1.80;99.90;;;;;;5101819;28;20118;-72
2024/01/19 06:32:48;;;;;;;17.90;11.52;;;1.80;99.90;;;;;;5115841;28;20611;-72
2024/01/19 06:35:14;;;;;;;20.83;10.73;;;1.80;99.90;;;;;;5104034;28;20031;-74
2024/01/19 06:37:39;;;;;;;12.98;8.18;;;1.70;99.90;;;;;;5091726;28;20055;-72
2024/01/19 06:40:07;;;;;;;16.30;8.05;;;1.60;99.90;;;;;;5095490;28;20119;-72
2024/01/19 06:42:32;;;;;;;15.45;8.68;;;1.60;99.90;;;;;;5095118;28;20020;-71
2024/01/19 06:44:58;;;;;;;22.20;10.80;;;1.60;99.90;;;;;;5094834;28;20103;-71
2024/01/19 06:47:24;;;;;;;19.30;10.73;;;1.60;99.90;;;;;;5095020;28;20110;-72
2024/01/19 06:49:50;;;;;;;20.00;10.70;;;1.60;99.90;;;;;;5095430;28;20028;-71
2024/01/19 06:52:16;;;;;;;19.23;11.20;;;1.60;99.90;;;;;;5095225;28;20075;-71
2024/01/19 06:54:41;;;;;;;18.00;9.75;;;1.60;99.90;;;;;;5094863;28;20058;-72
2024/01/19 06:57:07;;;;;;;15.57;9.18;;;1.60;99.90;;;;;;5094718;28;20031;-71
2024/01/19 06:59:33;;;;;;;17.88;8.10;;;1.50;99.90;;;;;;5095124;28;20032;-71
2024/01/19 07:01:58;;;;;;;18.13;9.85;;;1.50;99.90;;;;;;5094228;28;20118;-71
2024/01/19 07:04:25;;;;;;;16.20;8.13;;;1.50;99.90;;;;;;5094382;28;20020;-72
2024/01/19 07:06:50;;;;;;;16.00;8.50;;;1.50;99.90;;;;;;5095158;28;20096;-71
2024/01/19 07:09:17;;;;;;;16.02;8.02;;;1.60;99.90;;;;;;5094679;28;20069;-71
2024/01/19 07:11:43;;;;;;;16.52;7.00;;;1.50;99.90;;;;;;5094476;28;20036;-72
2024/01/19 07:14:09;;;;;;;13.40;8.02;;;1.50;99.90;;;;;;5094085;28;20024;-71
2024/01/19 07:16:43;;;;;;;14.68;7.93;;;1.50;99.90;;;;;;5094514;28;20571;-71
2024/01/19 07:19:10;;;;;;;13.15;7.03;;;1.50;99.90;;;;;;5088116;28;20424;-71
2024/01/19 07:21:37;;;;;;;13.85;7.10;;;1.60;99.90;;;;;;5074234;28;20510;-71
2024/01/19 07:24:04;;;;;;;12.13;7.00;;;1.50;99.90;;;;;;5074056;28;20505;-71
2024/01/19 07:26:30;;;;;;;13.35;7.25;;;1.60;99.90;;;;;;5094272;28;20103;-71
2024/01/19 07:28:56;;;;;;;12.60;7.13;;;1.50;99.90;;;;;;5093882;28;20541;-71
2024/01/19 07:31:22;;;;;;;13.07;7.55;;;1.60;99.90;;;;;;5093882;28;20119;-71
2024/01/19 07:33:47;;;;;;;12.30;7.13;;;1.70;99.90;;;;;;5093991;28;20120;-72
2024/01/19 07:36:15;;;;;;;22.83;7.82;;;1.70;99.90;;;;;;5093931;28;20038;-72
2024/01/19 07:38:41;;;;;;;15.23;7.63;;;1.70;99.90;;;;;;5093713;28;20025;-71
2024/01/19 07:41:07;;;;;;;14.15;7.65;;;1.70;99.90;;;;;;5093535;28;20036;-72
2024/01/19 07:43:32;;;;;;;15.93;7.95;;;1.70;99.90;;;;;;5094076;28;20031;-72
2024/01/19 07:45:58;;;;;;;16.83;7.25;;;1.70;99.90;;;;;;5093680;28;20028;-72
2024/01/19 07:48:24;;;;;;;15.55;7.70;;;1.60;99.90;;;;;;5093979;28;20030;-72
2024/01/19 07:50:50;;;;;;;16.58;7.70;;;1.60;99.90;;;;;;5093750;28;20070;-72
2024/01/19 07:53:15;;;;;;;13.20;6.93;;;1.60;99.90;;;;;;5093718;28;20060;-72
2024/01/19 07:55:41;;;;;;;13.35;7.72;;;1.70;99.90;;;;;;5093457;28;20070;-72
2024/01/19 07:58:07;;;;;;;19.73;8.38;;;1.70;99.90;;;;;;5093163;28;20035;-73
2024/01/19 08:00:32;;;;;;;12.52;7.50;;;1.60;99.90;;;;;;5092283;28;20032;-71
2024/01/19 08:02:59;;;;;;;17.15;8.48;;;1.60;99.90;;;;;;5093366;28;20028;-71
2024/01/19 08:05:25;;;;;;;14.45;7.70;;;1.60;99.90;;;;;;5093560;28;20165;-71
2024/01/19 08:07:52;;;;;;;24.20;11.18;;;1.60;99.90;;;;;;5093344;28;20095;-71
2024/01/19 08:10:18;;;;;;;15.73;9.68;;;1.60;99.90;;;;;;5093456;28;20036;-71
2024/01/19 08:12:44;;;;;;;19.23;8.90;;;1.90;99.90;;;;;;5093021;28;20020;-71
2024/01/19 08:15:10;;;;;;;17.65;9.10;;;2.20;99.90;;;;;;5091828;28;20031;-71
2024/01/19 08:17:35;;;;;;;13.02;7.13;;;2.30;99.90;;;;;;5093252;28;20028;-71
2024/01/19 08:20:01;;;;;;;14.18;7.57;;;2.30;99.90;;;;;;5093286;28;20021;-71
2024/01/19 08:22:27;;;;;;;13.40;7.22;;;2.50;99.90;;;;;;5092978;28;20034;-71
2024/01/19 08:24:53;;;;;;;17.63;8.10;;;2.50;99.90;;;;;;5093070;28;20012;-71
2024/01/19 08:27:18;;;;;;;17.52;8.13;;;2.50;99.90;;;;;;5104403;28;20081;-71
2024/01/19 08:29:47;;;;;;;13.15;7.53;;;2.30;99.90;;;;;;5113027;28;20234;-71
2024/01/19 08:32:13;;;;;;;17.00;8.18;;;2.20;99.90;;;;;;5113152;28;20366;-70
2024/01/19 08:34:39;;;;;;;14.30;9.15;;;2.20;99.90;;;;;;5108454;28;20092;-71
2024/01/19 08:37:05;;;;;;;17.23;8.40;;;1.90;99.90;;;;;;5092805;28;20026;-71
2024/01/19 08:39:30;;;;;;;16.00;9.73;;;2.00;99.90;;;;;;5093020;28;20103;-71
2024/01/19 08:41:56;;;;;;;21.33;11.30;;;1.90;99.90;;;;;;5092733;28;20028;-71
2024/01/19 08:44:22;;;;;;;20.20;10.23;;;1.80;99.90;;;;;;5093327;28;20031;-71
2024/01/19 08:46:49;;;;;;;19.38;10.20;;;1.80;99.90;;;;;;5092816;28;20024;-71
2024/01/19 08:49:15;;;;;;;14.82;8.88;;;1.80;99.90;;;;;;5092866;28;20036;-71
2024/01/19 08:51:40;;;;;;;13.57;8.70;;;1.90;99.90;;;;;;5092696;28;20080;-71
2024/01/19 08:54:06;;;;;;;16.13;9.50;;;2.00;99.90;;;;;;5092972;28;20084;-71
2024/01/19 08:56:32;;;;;;;14.52;7.82;;;1.90;99.90;;;;;;5092413;28;20024;-71
2024/01/19 08:58:57;;;;;;;14.60;7.93;;;1.90;99.90;;;;;;5093546;28;20027;-71
2024/01/19 09:01:24;;;;;;;12.40;7.55;;;1.90;99.90;;;;;;5092644;28;20031;-71
2024/01/19 09:03:49;;;;;;;15.50;8.98;;;2.00;99.90;;;;;;5092574;28;20107;-71
2024/01/19 09:06:15;;;;;;;16.83;9.27;;;1.90;99.90;;;;;;5092495;28;20101;-71
2024/01/19 09:08:42;;;;;;;14.27;8.15;;;1.90;99.90;;;;;;5092502;28;20020;-71
2024/01/19 09:11:09;;;;;;;14.23;8.32;;;2.00;99.90;;;;;;5092045;28;20047;-71
2024/01/19 09:13:34;;;;;;;17.45;8.95;;;2.00;99.90;;;;;;5092444;28;20024;-71
2024/01/19 09:16:00;;;;;;;16.60;8.85;;;2.00;99.90;;;;;;5092521;28;20020;-71
2024/01/19 09:18:25;;;;;;;16.15;8.30;;;2.00;99.90;;;;;;5091710;28;20024;-71
2024/01/19 09:20:51;;;;;;;13.65;8.10;;;1.90;99.90;;;;;;5092321;28;20028;-71
2024/01/19 09:23:17;;;;;;;20.90;10.55;;;2.00;99.90;;;;;;5092314;28;20405;-70
2024/01/19 09:25:42;;;;;;;15.30;8.18;;;1.90;99.90;;;;;;5092251;28;20035;-71
2024/01/19 09:28:08;;;;;;;16.10;8.77;;;1.90;99.90;;;;;;5092257;28;20024;-71
2024/01/19 09:30:34;;;;;;;14.25;7.78;;;2.00;99.90;;;;;;5092061;28;20064;-71
2024/01/19 09:32:59;;;;;;;17.98;11.63;;;1.90;99.90;;;;;;5092560;28;20095;-72
2024/01/19 09:35:25;;;;;;;14.52;9.02;;;2.00;99.90;;;;;;5092408;28;20039;-72
2024/01/19 09:37:51;;;;;;;16.10;9.00;;;2.10;99.90;;;;;;5091669;28;20478;-72
2024/01/19 09:40:19;;;;;;;13.45;8.43;;;2.10;99.90;;;;;;5092016;28;20056;-71
2024/01/19 09:42:47;;;;;;;18.48;9.30;;;2.10;99.90;;;;;;5092212;28;20028;-71
2024/01/19 09:45:17;;;;;;;14.13;8.80;;;2.10;99.90;;;;;;5092347;28;20039;-71
2024/01/19 09:47:55;;;;;;;18.25;9.13;;;2.10;99.90;;;;;;5095383;28;20027;-71
2024/01/19 09:50:26;;;;;;;19.00;9.38;;;2.20;99.90;;;;;;5095915;28;20040;-71
2024/01/19 09:53:00;;;;;;;22.70;12.73;;;2.20;99.90;;;;;;5095995;28;20052;-71
2024/01/19 09:55:29;;;;;;;15.82;8.70;;;2.20;99.90;;;;;;5096503;28;20028;-71
2024/01/19 09:57:56;;;;;;;14.20;8.10;;;2.30;99.90;;;;;;5096172;28;20043;-70
2024/01/19 10:00:22;;;;;;;12.10;7.60;;;2.30;99.90;;;;;;5096116;28;20103;-71
2024/01/19 10:02:49;;;;;;;14.65;9.40;;;2.40;99.90;;;;;;5096040;28;20051;-70
2024/01/19 10:05:16;;;;;;;13.88;8.65;;;2.40;99.90;;;;;;5096054;28;20028;-71
2024/01/19 10:07:44;;;;;;;16.65;8.45;;;2.50;99.90;;;;;;5095850;28;20051;-70
2024/01/19 10:10:11;;;;;;;12.70;7.90;;;2.60;99.90;;;;;;5095639;28;20031;-71
2024/01/19 10:12:41;;;;;;;12.70;8.20;;;2.60;99.90;;;;;;5095930;28;20043;-71
2024/01/19 10:15:12;;;;;;;12.95;7.22;;;2.60;99.90;;;;;;5095657;28;20032;-71
2024/01/19 10:17:38;;;;;;;12.50;7.30;;;2.70;99.90;;;;;;5095777;28;20016;-72
2024/01/19 10:20:06;;;;;;;12.52;6.65;;;2.70;99.90;;;;;;5095600;28;20024;-72
2024/01/19 10:22:32;;;;;;;13.45;6.65;;;2.70;99.90;;;;;;5095552;28;20025;-71
2024/01/19 10:25:00;;;;;;;14.00;6.90;;;2.80;99.90;;;;;;5095575;28;20028;-72
2024/01/19 10:27:48;;;;;;;13.70;7.10;;;2.80;99.90;;;;;;5095567;28;20032;-72
2024/01/19 10:30:17;;;;;;;9.88;6.80;;;2.80;99.90;;;;;;5095556;28;20141;-72
2024/01/19 10:32:45;;;;;;;12.90;6.80;;;2.90;99.90;;;;;;5095489;28;20044;-72
2024/01/19 10:35:15;;;;;;;15.02;7.00;;;2.90;99.90;;;;;;5094177;28;20440;-73
2024/01/19 10:37:42;;;;;;;14.57;7.65;;;3.20;99.90;;;;;;5094865;28;20570;-72
2024/01/19 10:40:19;;;;;;;11.90;6.70;;;3.50;99.90;;;;;;5095058;28;20052;-72
2024/01/19 10:42:46;;;;;;;11.93;6.78;;;3.60;99.90;;;;;;5095313;28;20107;-72
2024/01/19 10:45:17;;;;;;;13.52;6.90;;;3.90;99.90;;;;;;5095127;28;20020;-72
2024/01/19 10:47:44;;;;;;;11.75;5.85;;;4.00;99.90;;;;;;5095077;28;20073;-72
2024/01/19 10:50:14;;;;;;;11.27;5.95;;;4.00;99.90;;;;;;5094944;28;20035;-70
2024/01/19 10:52:44;;;;;;;13.18;6.50;;;4.00;99.90;;;;;;5095212;28;20040;-71
2024/01/19 10:55:18;;;;;;;9.25;5.95;;;4.00;99.90;;;;;;5095441;28;20077;-71
2024/01/19 10:57:43;;;;;;;;;;;3.90;99.90;;;;;;5094411;28;20043;-71
2024/01/19 11:00:26;;;;;;;10.85;6.20;;;3.70;99.90;;;;;;5095081;28;19951;-71
2024/01/19 11:02:57;;;;;;;14.52;6.05;;;3.60;99.90;;;;;;5094870;28;20026;-71
2024/01/19 11:05:24;;;;;;;9.75;6.10;;;3.60;99.90;;;;;;5094454;28;20028;-70
2024/01/19 11:07:55;;;;;;;10.18;5.75;;;3.60;99.90;;;;;;5094777;28;20034;-70
2024/01/19 11:10:22;;;;;;;11.13;5.47;;;3.60;99.90;;;;;;5094930;28;20452;-70
2024/01/19 11:12:59;;;;;;;8.90;6.15;;;3.60;99.90;;;;;;5094779;28;20105;-70
2024/01/19 11:15:37;;;;;;;8.93;6.25;;;3.60;99.90;;;;;;5097418;28;20024;-71
2024/01/19 11:18:05;;;;;;;9.88;5.85;;;3.50;99.90;;;;;;5093217;28;20490;-70
2024/01/19 11:20:33;;;;;;;11.60;6.30;;;3.50;99.90;;;;;;5094095;28;20016;-70
2024/01/19 11:23:00;;;;;;;14.60;5.88;;;3.50;99.90;;;;;;5094403;28;20023;-70
2024/01/19 11:26:04;;;;;;;12.60;5.95;;;3.50;99.90;;;;;;5094448;28;20020;-71
2024/01/19 11:28:41;;;;;;;11.80;7.28;;;3.60;99.90;;;;;;5094651;28;20070;-70
2024/01/19 11:31:15;;;;;;;11.70;6.60;;;3.60;99.90;;;;;;5094257;28;20066;-71
2024/01/19 11:33:40;;;;;;;;;;;3.70;99.90;;;;;;5092490;28;20050;-71
2024/01/19 11:36:06;;;;;;;10.38;5.38;;;3.60;99.90;;;;;;5093434;28;19912;-71
2024/01/19 11:38:46;;;;;;;8.82;5.40;;;3.70;99.90;;;;;;5081159;28;20051;-71
2024/01/19 11:41:33;;;;;;;11.25;5.55;;;3.70;99.90;;;;;;5093952;28;20048;-71
2024/01/19 11:44:01;;;;;;;10.93;5.63;;;3.70;99.90;;;;;;5094553;28;20398;-70
2024/01/19 11:46:47;;;;;;;9.45;5.45;;;3.80;99.90;;;;;;5093803;28;20037;-70
2024/01/19 11:49:45;;;;;;;9.98;5.32;;;3.90;99.90;;;;;;5093287;28;20417;-70
2024/01/19 11:52:11;;;;;;;12.82;5.35;;;3.80;99.90;;;;;;5091698;28;20079;-70
2024/01/19 11:54:37;;;;;;;7.60;5.25;;;3.80;99.90;;;;;;5093731;28;20060;-70
2024/01/19 11:57:16;;;;;;;10.55;5.63;;;3.80;99.90;;;;;;5089439;28;20032;-70
2024/01/19 11:59:43;;;;;;;8.80;4.93;;;3.90;99.90;;;;;;5088569;28;20028;-70
2024/01/19 12:02:23;;;;;;;8.18;4.93;;;3.90;99.90;;;;;;5093583;28;20398;-70
2024/01/19 12:04:50;;;;;;;8.65;4.72;;;4.00;99.90;;;;;;5093652;28;20032;-71
2024/01/19 12:07:19;;;;;;;7.90;4.72;;;4.00;99.90;;;;;;5093653;28;20020;-70
2024/01/19 12:10:03;;;;;;;8.70;4.95;;;4.00;99.90;;;;;;5092616;28;20051;-71
2024/01/19 12:12:29;;;;;;;9.48;5.00;;;4.10;99.90;;;;;;5093381;28;20063;-71
2024/01/19 12:14:55;;;;;;;9.60;5.45;;;4.10;99.90;;;;;;5093314;28;20051;-70
2024/01/19 12:17:21;;;;;;;10.63;5.43;;;4.10;99.90;;;;;;5090627;28;20050;-71
2024/01/19 12:19:51;;;;;;;8.70;5.20;;;4.10;99.90;;;;;;5092949;28;20028;-70
2024/01/19 12:22:17;;;;;;;8.55;5.25;;;4.10;99.90;;;;;;5087761;28;20025;-70
2024/01/19 12:24:43;;;;;;;10.15;5.32;;;4.20;99.90;;;;;;5081680;28;20080;-70
2024/01/19 12:27:08;;;;;;;9.38;5.07;;;4.20;99.90;;;;;;5072801;28;20024;-70
2024/01/19 12:29:37;;;;;;;9.45;4.68;;;4.20;99.90;;;;;;5086837;28;20450;-70
2024/01/19 12:32:10;;;;;;;8.32;4.20;;;4.20;99.90;;;;;;5092406;28;20071;-70
2024/01/19 12:34:36;;;;;;;10.25;4.72;;;4.30;99.90;;;;;;5092713;28;20515;-70
2024/01/19 12:37:02;;;;;;;7.32;4.32;;;4.40;99.90;;;;;;5092270;28;20027;-70
2024/01/19 12:39:27;;;;;;;8.00;4.20;;;4.40;99.90;;;;;;5092103;28;20386;-70
2024/01/19 12:42:00;;;;;;;8.38;4.50;;;4.40;99.90;;;;;;5092237;28;20024;-70